Time;durP1;ratioP1;P1;durP2;ratioP2;P2;SDS_P1;SDS_P2;PMS_P1;PMS_P2;Temp;Humidity;BMP_temperature;BMP_pressure;BME280_temperature;BME280_humidity;BME280_pressure;Samples;Min_cycle;Max_cycle;Signal;HPM_P1;HPM_P2
2023/09/10 00:01:22;;;;;;;19.77;15.13;;;20.70;99.90;;;;;;6007578;23;20169;-77
2023/09/10 00:03:50;;;;;;;18.40;15.03;;;20.60;99.90;;;;;;6003415;23;20257;-74
2023/09/10 00:06:16;;;;;;;20.43;15.80;;;20.60;99.90;;;;;;6030132;23;20390;-74
2023/09/10 00:08:44;;;;;;;14.33;12.87;;;20.60;99.90;;;;;;6007289;23;20458;-75
2023/09/10 00:11:11;;;;;;;17.50;14.90;;;20.50;99.90;;;;;;6005123;23;20427;-73
2023/09/10 00:13:37;;;;;;;16.63;14.93;;;20.50;99.90;;;;;;6031848;23;20478;-73
2023/09/10 00:16:03;;;;;;;19.63;15.63;;;20.50;99.90;;;;;;6008293;23;20375;-74
2023/09/10 00:18:30;;;;;;;20.17;15.97;;;20.50;99.90;;;;;;6030680;23;20267;-75
2023/09/10 00:20:55;;;;;;;19.17;15.53;;;20.40;99.90;;;;;;5980125;23;20789;-74
2023/09/10 00:23:21;;;;;;;15.17;13.70;;;20.40;99.90;;;;;;6002689;23;20181;-73
2023/09/10 00:25:48;;;;;;;17.47;15.63;;;20.40;99.90;;;;;;6027183;23;20141;-74
2023/09/10 00:28:14;;;;;;;15.33;13.73;;;20.40;99.90;;;;;;6002812;23;20419;-72
2023/09/10 00:30:39;;;;;;;20.13;16.33;;;20.40;99.90;;;;;;6003032;23;20374;-73
2023/09/10 00:33:05;;;;;;;19.20;13.67;;;20.40;99.90;;;;;;6054174;23;20173;-74
2023/09/10 00:35:31;;;;;;;16.43;14.73;;;20.30;99.90;;;;;;6062599;23;20156;-73
2023/09/10 00:37:57;;;;;;;17.30;14.60;;;20.30;99.90;;;;;;6061031;23;20153;-74
2023/09/10 00:40:22;;;;;;;17.30;15.47;;;20.20;99.90;;;;;;6084253;23;20196;-74
2023/09/10 00:42:48;;;;;;;17.40;15.60;;;20.20;99.90;;;;;;6061930;23;20607;-74
2023/09/10 00:45:14;;;;;;;16.30;14.70;;;20.20;99.90;;;;;;6061240;23;20185;-75
2023/09/10 00:47:43;;;;;;;14.70;13.27;;;20.10;99.90;;;;;;6059639;23;20182;-74
2023/09/10 00:50:09;;;;;;;15.17;13.60;;;20.10;99.90;;;;;;6087153;23;20141;-74
2023/09/10 00:52:39;;;;;;;16.23;14.53;;;20.10;99.90;;;;;;6061012;23;20386;-74
2023/09/10 00:55:05;;;;;;;16.77;14.90;;;20.00;99.90;;;;;;6060930;23;20421;-73
2023/09/10 00:57:33;;;;;;;19.10;15.40;;;20.00;99.90;;;;;;6062059;23;20376;-75
2023/09/10 01:00:05;;;;;;;18.20;16.30;;;20.00;99.90;;;;;;6061120;23;20377;-76
2023/09/10 01:02:31;;;;;;;19.30;15.87;;;19.90;99.90;;;;;;6060446;23;20389;-72
2023/09/10 01:04:57;;;;;;;19.87;17.23;;;19.90;99.90;;;;;;6059115;23;20385;-73
2023/09/10 01:07:22;;;;;;;20.90;15.60;;;19.90;99.90;;;;;;6060067;23;20437;-75
2023/09/10 01:09:48;;;;;;;20.77;14.23;;;19.90;99.90;;;;;;6034234;23;20447;-73
2023/09/10 01:12:32;;;;;;;18.10;14.77;;;19.80;99.90;;;;;;6060077;23;20517;-75
2023/09/10 01:15:27;;;;;;;19.10;16.10;;;19.80;99.90;;;;;;6083612;23;20141;-72
2023/09/10 01:18:22;;;;;;;17.57;15.67;;;19.80;99.90;;;;;;6060375;23;20449;-74
2023/09/10 01:21:08;;;;;;;18.90;15.83;;;19.80;99.90;;;;;;6059822;23;20377;-74
2023/09/10 01:24:05;;;;;;;18.87;15.97;;;19.80;99.90;;;;;;6034941;23;20445;-74
2023/09/10 01:26:31;;;;;;;28.10;17.00;;;19.70;99.90;;;;;;6060252;23;20373;-74
2023/09/10 01:28:57;;;;;;;18.40;15.70;;;19.70;99.90;;;;;;6035386;23;20428;-73
2023/09/10 01:31:22;;;;;;;23.10;17.70;;;19.80;99.90;;;;;;6056537;23;20423;-75
2023/09/10 01:33:57;;;;;;;21.70;17.00;;;19.70;99.90;;;;;;6057101;23;20173;-74
2023/09/10 01:36:32;;;;;;;17.70;14.40;;;19.70;99.90;;;;;;6058389;23;20148;-73
2023/09/10 01:39:24;;;;;;;19.07;15.57;;;19.70;99.90;;;;;;6058333;23;20448;-72
2023/09/10 01:41:51;;;;;;;17.60;14.70;;;19.70;99.90;;;;;;6058338;23;20373;-73
2023/09/10 01:44:18;;;;;;;16.30;14.70;;;19.70;99.90;;;;;;6084316;23;20421;-72
2023/09/10 01:46:45;;;;;;;17.50;14.40;;;19.60;99.90;;;;;;6034604;23;20384;-74
2023/09/10 01:49:11;;;;;;;14.67;13.10;;;19.60;99.90;;;;;;6086676;23;20417;-73
2023/09/10 01:51:37;;;;;;;13.87;12.30;;;19.60;99.90;;;;;;6061831;23;20382;-71
2023/09/10 01:54:03;;;;;;;14.13;12.83;;;19.60;99.90;;;;;;6059450;23;20872;-73
2023/09/10 01:56:29;;;;;;;14.03;12.53;;;19.50;99.90;;;;;;6059823;23;20157;-73
2023/09/10 01:58:55;;;;;;;15.63;14.07;;;19.40;99.90;;;;;;6058862;23;20396;-73
2023/09/10 02:01:22;;;;;;;19.20;15.10;;;19.40;99.90;;;;;;6084067;23;20149;-75
2023/09/10 02:03:48;;;;;;;19.43;16.23;;;19.40;99.90;;;;;;6061140;23;20192;-73
2023/09/10 02:06:14;;;;;;;16.20;14.10;;;19.30;99.90;;;;;;6039186;23;20372;-76
2023/09/10 02:08:39;;;;;;;14.73;13.23;;;19.30;99.90;;;;;;6061942;23;20444;-73
2023/09/10 02:11:07;;;;;;;13.93;12.60;;;19.30;99.90;;;;;;6024894;23;20200;-72
2023/09/10 02:13:33;;;;;;;16.00;12.50;;;19.20;99.90;;;;;;6024560;23;20172;-74
2023/09/10 02:15:59;;;;;;;16.10;13.63;;;19.20;99.90;;;;;;6021614;23;20391;-73
2023/09/10 02:18:25;;;;;;;14.93;13.43;;;19.20;99.90;;;;;;6022880;23;20153;-73
2023/09/10 02:20:51;;;;;;;19.93;14.70;;;19.20;99.90;;;;;;5999139;23;20537;-72
2023/09/10 02:23:17;;;;;;;17.50;15.67;;;19.10;99.90;;;;;;5997116;23;20727;-73
2023/09/10 02:25:42;;;;;;;15.70;14.10;;;19.20;99.90;;;;;;5972988;23;20221;-73
2023/09/10 02:28:09;;;;;;;14.67;13.23;;;19.10;99.90;;;;;;5999358;23;20186;-73
2023/09/10 02:30:34;;;;;;;12.60;11.40;;;19.10;99.90;;;;;;5999252;23;20548;-73
2023/09/10 02:33:00;;;;;;;11.27;10.23;;;19.10;99.90;;;;;;5975424;23;20403;-72
2023/09/10 02:35:27;;;;;;;11.57;9.57;;;19.10;99.90;;;;;;5995664;24;20454;-73
2023/09/10 02:37:53;;;;;;;11.90;10.90;;;19.10;99.90;;;;;;5971232;24;20396;-73
2023/09/10 02:40:19;;;;;;;11.60;10.60;;;19.00;99.90;;;;;;5994292;24;20392;-72
2023/09/10 02:42:44;;;;;;;11.50;10.40;;;19.00;99.90;;;;;;6015798;23;20158;-73
2023/09/10 02:45:11;;;;;;;13.63;11.43;;;19.00;99.90;;;;;;6023160;23;20230;-74
2023/09/10 02:47:37;;;;;;;10.87;9.77;;;18.90;99.90;;;;;;6025147;23;20143;-72
2023/09/10 02:50:04;;;;;;;12.63;11.30;;;18.90;99.90;;;;;;6025458;23;20465;-74
2023/09/10 02:52:30;;;;;;;13.87;11.80;;;18.90;99.90;;;;;;6024954;23;20150;-73
2023/09/10 02:54:59;;;;;;;15.90;13.10;;;18.90;99.90;;;;;;6000036;23;20485;-74
2023/09/10 02:57:25;;;;;;;12.70;11.50;;;18.90;99.90;;;;;;6002130;23;20371;-72
2023/09/10 02:59:51;;;;;;;14.30;11.40;;;18.90;99.90;;;;;;6023198;23;20831;-73
2023/09/10 03:02:18;;;;;;;14.00;12.53;;;18.90;99.90;;;;;;6003234;23;20456;-73
2023/09/10 03:04:43;;;;;;;15.20;12.27;;;18.90;99.90;;;;;;6024825;23;20253;-72
2023/09/10 03:07:09;;;;;;;14.67;13.17;;;18.80;99.90;;;;;;6069844;23;20382;-72
2023/09/10 03:09:36;;;;;;;16.57;14.50;;;18.80;99.90;;;;;;6032427;23;20172;-72
2023/09/10 03:12:26;;;;;;;19.70;13.50;;;18.80;99.90;;;;;;6034008;23;20370;-74
2023/09/10 03:14:54;;;;;;;16.30;12.33;;;18.80;99.90;;;;;;6057363;23;20203;-73
2023/09/10 03:17:21;;;;;;;16.13;13.30;;;18.80;99.90;;;;;;6035324;23;20374;-73
2023/09/10 03:19:47;;;;;;;17.90;13.23;;;18.80;99.90;;;;;;6058217;23;20782;-73
2023/09/10 03:22:15;;;;;;;19.10;13.20;;;18.80;99.90;;;;;;6057753;23;20378;-73
2023/09/10 03:24:40;;;;;;;13.43;11.90;;;18.70;99.90;;;;;;6057817;23;20471;-73
2023/09/10 03:27:06;;;;;;;13.87;12.43;;;18.70;99.90;;;;;;6033118;23;20149;-72
2023/09/10 03:29:33;;;;;;;14.03;12.17;;;18.70;99.90;;;;;;6058316;23;20173;-74
2023/09/10 03:31:59;;;;;;;17.70;13.03;;;18.70;99.90;;;;;;6057508;23;20507;-72
2023/09/10 03:34:25;;;;;;;19.63;15.57;;;18.70;99.90;;;;;;6081853;23;20830;-72
2023/09/10 03:36:52;;;;;;;17.03;15.23;;;18.70;99.90;;;;;;6058455;23;20381;-72
2023/09/10 03:39:18;;;;;;;20.40;15.87;;;18.70;99.90;;;;;;6058765;23;20374;-73
2023/09/10 03:41:45;;;;;;;15.70;14.20;;;18.70;99.90;;;;;;6055807;23;20168;-72
2023/09/10 03:44:11;;;;;;;16.80;14.10;;;18.70;99.90;;;;;;6062367;23;20421;-74
2023/09/10 03:46:37;;;;;;;21.83;17.00;;;18.70;99.90;;;;;;6067837;23;20405;-72
2023/09/10 03:49:02;;;;;;;15.87;13.33;;;18.70;99.90;;;;;;6086187;23;20176;-72
2023/09/10 03:51:28;;;;;;;16.57;14.97;;;18.70;99.90;;;;;;6059548;23;20384;-71
2023/09/10 03:53:54;;;;;;;18.60;15.70;;;18.70;99.90;;;;;;6054636;23;20205;-73
2023/09/10 03:56:22;;;;;;;15.73;14.07;;;18.70;99.90;;;;;;6053342;23;20226;-72
2023/09/10 03:58:47;;;;;;;17.53;14.60;;;18.70;99.90;;;;;;6079922;23;20159;-71
2023/09/10 04:01:13;;;;;;;17.30;14.70;;;18.60;99.90;;;;;;6075688;23;20365;-71
2023/09/10 04:03:39;;;;;;;19.37;14.67;;;18.60;99.90;;;;;;6045835;23;20197;-71
2023/09/10 04:06:04;;;;;;;17.37;15.23;;;18.60;99.90;;;;;;6045698;23;20377;-70
2023/09/10 04:08:30;;;;;;;19.10;15.40;;;18.60;99.90;;;;;;6071126;23;20444;-73
2023/09/10 04:10:55;;;;;;;17.00;13.20;;;18.60;99.90;;;;;;6070634;23;20137;-72
2023/09/10 04:13:21;;;;;;;16.23;14.40;;;18.50;99.90;;;;;;6071016;23;20232;-71
2023/09/10 04:15:46;;;;;;;15.13;13.40;;;18.50;99.90;;;;;;6071156;23;20192;-73
2023/09/10 04:18:12;;;;;;;17.13;14.43;;;18.50;99.90;;;;;;6071326;23;20145;-70
2023/09/10 04:20:37;;;;;;;17.40;14.83;;;18.40;99.90;;;;;;6046734;23;20168;-71
2023/09/10 04:23:03;;;;;;;16.10;14.60;;;18.40;99.90;;;;;;6046700;23;20184;-73
2023/09/10 04:25:29;;;;;;;19.60;15.77;;;18.40;99.90;;;;;;6070904;23;20145;-74
2023/09/10 04:27:54;;;;;;;18.47;13.73;;;18.40;99.90;;;;;;6045416;23;20138;-72
2023/09/10 04:30:20;;;;;;;21.97;14.93;;;18.40;99.90;;;;;;6046697;23;20182;-73
2023/09/10 04:32:46;;;;;;;16.30;14.80;;;18.40;99.90;;;;;;6046631;23;20173;-71
2023/09/10 04:35:12;;;;;;;20.37;14.27;;;18.40;99.90;;;;;;6045485;23;20146;-73
2023/09/10 04:37:38;;;;;;;24.13;18.20;;;18.40;99.90;;;;;;6022309;23;20164;-72
2023/09/10 04:40:06;;;;;;;23.70;15.67;;;18.40;99.90;;;;;;6046303;23;20451;-74
2023/09/10 04:42:33;;;;;;;21.10;15.40;;;18.40;99.90;;;;;;6044764;23;20821;-72
2023/09/10 04:44:59;;;;;;;15.20;13.70;;;18.40;99.90;;;;;;6045590;23;20765;-71
2023/09/10 04:47:25;;;;;;;18.93;16.23;;;18.40;99.90;;;;;;6046242;23;20855;-73
2023/09/10 04:49:50;;;;;;;23.13;14.90;;;18.40;99.90;;;;;;6070064;23;20413;-72
2023/09/10 04:52:16;;;;;;;15.50;13.93;;;18.30;99.90;;;;;;6046156;23;20145;-70
2023/09/10 04:54:42;;;;;;;16.73;14.80;;;18.30;99.90;;;;;;6046105;23;20200;-74
2023/09/10 04:57:09;;;;;;;14.33;12.90;;;18.30;99.90;;;;;;6071238;23;20368;-74
2023/09/10 04:59:35;;;;;;;21.80;15.07;;;18.30;99.90;;;;;;6045672;23;20378;-72
2023/09/10 05:02:01;;;;;;;15.40;13.77;;;18.30;99.90;;;;;;6051814;23;20467;-71
2023/09/10 05:04:27;;;;;;;16.10;14.60;;;18.30;99.90;;;;;;6056318;23;20205;-72
2023/09/10 05:06:53;;;;;;;20.10;15.27;;;18.30;99.90;;;;;;6057011;23;20396;-73
2023/09/10 05:09:19;;;;;;;17.70;15.80;;;18.30;99.90;;;;;;6056392;23;20187;-73
2023/09/10 05:11:44;;;;;;;15.50;13.80;;;18.30;99.90;;;;;;6079788;23;20133;-72
2023/09/10 05:14:10;;;;;;;18.53;14.73;;;18.30;99.90;;;;;;6020800;23;20184;-74
2023/09/10 05:16:36;;;;;;;18.90;15.73;;;18.30;99.90;;;;;;5975662;23;20235;-71
2023/09/10 05:19:02;;;;;;;21.00;16.20;;;18.30;99.90;;;;;;6022853;23;20391;-72
2023/09/10 05:21:27;;;;;;;14.33;12.70;;;18.30;99.90;;;;;;5998862;23;20189;-71
2023/09/10 05:23:53;;;;;;;15.30;13.23;;;18.40;99.90;;;;;;5995385;23;20181;-74
2023/09/10 05:26:19;;;;;;;17.17;15.20;;;18.30;99.90;;;;;;5995318;23;20202;-71
2023/09/10 05:28:44;;;;;;;15.67;14.03;;;18.40;99.90;;;;;;5974651;23;20229;-72
2023/09/10 05:31:10;;;;;;;16.03;13.20;;;18.40;99.90;;;;;;6020349;23;20154;-72
2023/09/10 05:33:38;;;;;;;17.13;13.30;;;18.40;99.90;;;;;;6023401;23;20268;-71
2023/09/10 05:36:04;;;;;;;17.60;14.37;;;18.50;99.90;;;;;;5998854;23;20376;-73
2023/09/10 05:38:31;;;;;;;16.00;13.23;;;18.50;99.90;;;;;;6020365;23;20142;-72
2023/09/10 05:41:03;;;;;;;19.73;14.03;;;18.60;99.90;;;;;;5973821;23;20654;-74
2023/09/10 05:43:32;;;;;;;16.90;13.70;;;18.60;99.90;;;;;;5996981;23;20463;-71
2023/09/10 05:45:58;;;;;;;13.57;12.13;;;18.70;99.90;;;;;;6046593;23;20447;-72
2023/09/10 05:48:25;;;;;;;16.63;12.90;;;18.70;99.90;;;;;;6032576;23;20553;-72
2023/09/10 05:50:55;;;;;;;14.47;12.70;;;18.80;99.90;;;;;;6056877;23;20384;-71
2023/09/10 05:53:21;;;;;;;15.57;12.50;;;18.80;99.90;;;;;;6060302;23;20189;-72
2023/09/10 05:55:47;;;;;;;14.47;12.93;;;18.90;99.90;;;;;;6060642;23;20648;-73
2023/09/10 05:58:14;;;;;;;12.70;11.40;;;18.90;99.90;;;;;;6057677;23;20173;-72
2023/09/10 06:00:40;;;;;;;13.30;9.93;;;19.00;99.90;;;;;;6083379;23;20378;-72
2023/09/10 06:03:09;;;;;;;13.00;8.90;;;19.10;99.90;;;;;;6059165;23;20416;-72
2023/09/10 06:05:36;;;;;;;16.93;13.27;;;19.10;99.90;;;;;;6063126;23;20449;-72
2023/09/10 06:08:02;;;;;;;13.73;12.33;;;19.20;99.90;;;;;;6060630;23;20377;-72
2023/09/10 06:10:28;;;;;;;13.03;11.80;;;19.20;99.90;;;;;;6012634;23;20377;-73
2023/09/10 06:12:54;;;;;;;13.50;12.13;;;19.30;99.90;;;;;;6058079;23;20469;-72
2023/09/10 06:15:21;;;;;;;16.83;12.33;;;19.30;99.90;;;;;;6058614;23;20160;-72
2023/09/10 06:17:47;;;;;;;13.27;11.80;;;19.40;99.90;;;;;;6057844;23;20157;-70
2023/09/10 06:20:14;;;;;;;21.23;13.40;;;19.40;99.90;;;;;;6057849;23;20369;-73
2023/09/10 06:22:40;;;;;;;15.67;12.93;;;19.50;99.90;;;;;;6062033;23;20437;-73
2023/09/10 06:25:07;;;;;;;17.53;12.40;;;19.50;99.90;;;;;;6060833;23;20453;-74
2023/09/10 06:27:33;;;;;;;11.27;10.00;;;19.60;99.90;;;;;;6058633;23;20370;-71
2023/09/10 06:29:59;;;;;;;23.63;12.07;;;19.70;99.90;;;;;;6060923;23;20444;-72
2023/09/10 06:32:26;;;;;;;13.50;11.20;;;19.70;99.90;;;;;;6039369;23;20437;-72
2023/09/10 06:34:51;;;;;;;12.83;11.37;;;19.80;99.90;;;;;;6084624;23;20384;-73
2023/09/10 06:37:17;;;;;;;15.40;12.23;;;19.80;99.90;;;;;;6061327;23;20142;-72
2023/09/10 06:39:44;;;;;;;14.77;11.77;;;19.90;99.90;;;;;;6082662;23;20153;-74
2023/09/10 06:42:12;;;;;;;11.30;9.70;;;19.90;99.90;;;;;;6086170;23;20365;-76
2023/09/10 06:44:43;;;;;;;14.27;11.57;;;20.00;99.90;;;;;;6064396;23;20425;-74
2023/09/10 06:47:12;;;;;;;13.33;10.20;;;20.00;99.90;;;;;;6062378;23;20381;-73
2023/09/10 06:49:38;;;;;;;15.13;11.70;;;20.10;99.90;;;;;;6055115;23;20434;-75
2023/09/10 06:52:05;;;;;;;12.20;10.77;;;20.10;99.90;;;;;;6008006;23;20394;-72
2023/09/10 06:54:31;;;;;;;12.00;10.83;;;20.20;99.90;;;;;;6054510;23;20182;-73
2023/09/10 06:57:01;;;;;;;13.53;11.13;;;20.20;99.90;;;;;;6051933;23;20461;-72
2023/09/10 06:59:27;;;;;;;18.20;11.20;;;20.30;99.90;;;;;;6006268;23;20385;-72
2023/09/10 07:01:53;;;;;;;11.70;9.43;;;20.30;99.90;;;;;;6008144;23;20381;-73
2023/09/10 07:04:26;;;;;;;16.80;11.60;;;20.40;99.90;;;;;;6030128;23;20394;-72
2023/09/10 07:06:54;;;;;;;12.00;10.53;;;20.50;99.90;;;;;;6013138;23;20418;-74
2023/09/10 07:09:22;;;;;;;18.93;12.50;;;20.60;99.90;;;;;;6055913;23;20430;-73
2023/09/10 07:11:52;;;;;;;11.37;8.97;;;20.60;99.90;;;;;;6051617;23;20146;-73
2023/09/10 07:14:19;;;;;;;15.10;10.87;;;20.60;99.90;;;;;;6033010;23;20402;-73
2023/09/10 07:16:46;;;;;;;12.40;11.20;;;20.70;99.90;;;;;;6010190;23;20382;-74
2023/09/10 07:19:11;;;;;;;14.33;10.97;;;20.80;99.90;;;;;;6057045;23;20745;-74
2023/09/10 07:21:38;;;;;;;15.30;11.00;;;20.80;99.90;;;;;;6034709;23;20417;-71
2023/09/10 07:24:06;;;;;;;14.00;10.63;;;20.90;99.90;;;;;;6058662;23;20181;-72
2023/09/10 07:26:36;;;;;;;13.40;11.03;;;21.00;99.90;;;;;;6057840;23;20386;-72
2023/09/10 07:29:06;;;;;;;14.00;10.67;;;21.10;99.90;;;;;;6059309;23;20428;-73
2023/09/10 07:31:34;;;;;;;14.50;10.10;;;21.10;99.90;;;;;;6057667;23;20354;-72
2023/09/10 07:34:01;;;;;;;13.30;10.33;;;21.20;99.90;;;;;;6059042;23;20876;-73
2023/09/10 07:36:26;;;;;;;14.77;10.27;;;21.20;99.90;;;;;;6086956;23;20377;-73
2023/09/10 07:38:52;;;;;;;11.67;10.23;;;21.30;99.90;;;;;;6060887;23;20456;-73
2023/09/10 07:41:18;;;;;;;15.20;11.13;;;21.30;99.90;;;;;;6059957;23;20145;-72
2023/09/10 07:43:44;;;;;;;11.10;10.17;;;21.40;99.90;;;;;;6054914;23;20422;-73
2023/09/10 07:46:10;;;;;;;13.70;10.77;;;21.50;99.90;;;;;;6009619;23;20158;-73
2023/09/10 07:48:36;;;;;;;11.73;10.43;;;21.60;99.90;;;;;;6029818;23;20414;-74
2023/09/10 07:51:02;;;;;;;9.70;8.63;;;21.70;99.90;;;;;;6029726;23;20808;-74
2023/09/10 07:53:28;;;;;;;9.63;8.67;;;21.70;99.90;;;;;;6029384;23;20177;-73
2023/09/10 07:55:54;;;;;;;11.70;9.23;;;21.80;99.90;;;;;;6054715;23;20424;-73
2023/09/10 07:58:19;;;;;;;12.40;9.53;;;21.90;99.90;;;;;;6030613;23;20147;-75
2023/09/10 08:00:45;;;;;;;14.07;9.93;;;22.00;99.90;;;;;;6031733;23;20154;-73
2023/09/10 08:03:13;;;;;;;9.40;8.43;;;22.10;99.90;;;;;;6005547;23;20200;-74
2023/09/10 08:05:38;;;;;;;11.50;10.40;;;22.20;99.90;;;;;;6055000;23;20206;-73
2023/09/10 08:08:04;;;;;;;11.47;9.07;;;22.30;99.90;;;;;;6057028;23;20378;-74
2023/09/10 08:10:30;;;;;;;12.17;9.00;;;22.40;99.90;;;;;;6030817;23;20206;-74
2023/09/10 08:12:56;;;;;;;12.47;9.80;;;22.50;99.90;;;;;;6035272;23;20438;-75
2023/09/10 08:15:22;;;;;;;12.50;8.97;;;22.60;99.90;;;;;;6058318;23;20429;-74
2023/09/10 08:17:51;;;;;;;17.00;10.37;;;22.70;99.90;;;;;;6002877;23;20722;-74
2023/09/10 08:20:17;;;;;;;9.80;8.80;;;22.80;99.90;;;;;;6002659;23;20151;-74
2023/09/10 08:22:43;;;;;;;9.50;8.60;;;22.80;99.90;;;;;;6024290;23;20420;-73
2023/09/10 08:25:09;;;;;;;10.20;9.20;;;22.90;99.90;;;;;;6001938;23;20400;-73
2023/09/10 08:27:38;;;;;;;12.23;8.77;;;22.90;99.90;;;;;;6026046;23;20437;-75
2023/09/10 08:30:05;;;;;;;12.97;9.40;;;23.00;99.90;;;;;;6025355;23;20178;-74
2023/09/10 08:32:37;;;;;;;11.87;9.40;;;23.10;99.90;;;;;;6003234;23;20380;-75
2023/09/10 08:35:16;;;;;;;9.90;8.23;;;23.20;99.90;;;;;;6028282;23;20368;-75
2023/09/10 08:37:42;;;;;;;9.30;8.37;;;23.20;99.90;;;;;;5965466;23;20395;-72
2023/09/10 08:40:08;;;;;;;9.33;7.50;;;23.30;99.90;;;;;;5980137;23;20390;-74
2023/09/10 08:43:01;;;;;;;11.90;8.73;;;23.40;99.90;;;;;;6003655;23;20163;-75
2023/09/10 08:45:27;;;;;;;12.17;8.90;;;23.60;99.90;;;;;;6004455;23;20646;-76
2023/09/10 08:47:57;;;;;;;10.53;8.03;;;23.60;99.90;;;;;;6025649;23;20375;-75
2023/09/10 08:50:24;;;;;;;12.60;8.40;;;23.80;99.90;;;;;;6026469;23;20210;-73
2023/09/10 08:52:50;;;;;;;11.03;9.27;;;23.90;99.90;;;;;;6029516;23;20501;-73
2023/09/10 08:55:16;;;;;;;10.23;8.43;;;24.00;99.90;;;;;;6044573;23;20394;-75
2023/09/10 08:57:44;;;;;;;9.50;8.60;;;24.00;99.90;;;;;;6057881;23;20443;-75
2023/09/10 09:00:12;;;;;;;10.00;7.80;;;24.10;99.90;;;;;;6034214;23;20165;-75
2023/09/10 09:02:47;;;;;;;8.57;7.67;;;24.20;99.90;;;;;;6082532;23;20383;-74
2023/09/10 09:05:41;;;;;;;7.57;6.83;;;24.40;99.90;;;;;;6060750;23;20382;-75
2023/09/10 09:08:15;;;;;;;8.47;7.50;;;24.40;99.90;;;;;;6061209;23;20397;-74
2023/09/10 09:10:44;;;;;;;9.90;7.50;;;24.50;99.90;;;;;;6059320;23;20370;-74
2023/09/10 09:13:16;;;;;;;11.53;8.43;;;24.60;99.90;;;;;;6063060;23;20445;-75
2023/09/10 09:15:44;;;;;;;7.70;7.00;;;24.70;98.90;;;;;;6064760;23;20370;-76
2023/09/10 09:18:15;;;;;;;12.67;8.87;;;24.80;98.40;;;;;;6066588;23;20376;-77
2023/09/10 09:20:54;;;;;;;13.80;8.87;;;24.90;97.30;;;;;;6065662;23;20405;-74
2023/09/10 09:23:26;;;;;;;9.83;6.57;;;25.00;96.90;;;;;;6046109;23;20450;-75
2023/09/10 09:25:55;;;;;;;9.50;7.53;;;25.10;96.50;;;;;;6011518;23;20389;-75
2023/09/10 09:28:27;;;;;;;8.17;7.10;;;25.20;95.70;;;;;;5970014;23;20425;-74
2023/09/10 09:30:53;;;;;;;9.43;6.70;;;25.30;94.90;;;;;;6035871;23;20386;-75
2023/09/10 09:33:25;;;;;;;8.70;6.87;;;25.40;94.10;;;;;;6064366;23;20451;-77
2023/09/10 09:35:53;;;;;;;9.27;7.27;;;25.40;93.30;;;;;;6036183;23;20413;-76
2023/09/10 09:38:20;;;;;;;7.63;6.50;;;25.60;92.70;;;;;;5988097;23;20454;-74
2023/09/10 09:40:47;;;;;;;10.13;7.33;;;25.70;91.70;;;;;;6054787;23;20354;-73
2023/09/10 09:43:13;;;;;;;10.70;7.10;;;25.80;90.40;;;;;;6032155;23;20481;-75
2023/09/10 09:45:39;;;;;;;12.10;7.60;;;25.80;89.70;;;;;;6032191;23;20779;-73
2023/09/10 09:48:06;;;;;;;7.53;6.60;;;25.90;87.90;;;;;;6009285;23;20524;-75
2023/09/10 09:50:43;;;;;;;11.53;7.20;;;26.00;85.20;;;;;;6022492;23;20463;-76
2023/09/10 09:53:16;;;;;;;9.33;6.43;;;26.10;83.80;;;;;;6046590;23;20885;-77
2023/09/10 09:55:44;;;;;;;15.23;8.37;;;26.20;82.80;;;;;;6038414;23;20397;-74
2023/09/10 09:58:11;;;;;;;8.90;7.80;;;26.30;79.50;;;;;;6062372;23;20382;-75
2023/09/10 10:00:42;;;;;;;6.77;6.00;;;26.40;78.80;;;;;;6088743;23;20365;-76
2023/09/10 10:04:01;;;;;;;7.17;6.40;;;26.50;77.50;;;;;;6091922;23;20396;-76
2023/09/10 10:09:32;;;;;;;10.30;7.00;;;26.60;74.40;;;;;;6033759;23;20438;-77
2023/09/10 10:12:00;;;;;;;6.73;5.93;;;26.70;71.30;;;;;;6058580;23;20390;-77
2023/09/10 10:14:35;;;;;;;7.60;5.97;;;26.80;71.30;;;;;;6079577;23;20525;-78
2023/09/10 10:17:03;;;;;;;11.40;7.00;;;26.90;70.70;;;;;;6016361;23;20393;-74
2023/09/10 10:19:30;;;;;;;7.27;6.27;;;27.00;69.10;;;;;;6064205;23;20397;-74
2023/09/10 10:21:58;;;;;;;12.30;7.03;;;27.00;67.90;;;;;;6062790;23;20460;-75
2023/09/10 10:24:25;;;;;;;9.40;6.80;;;27.20;66.70;;;;;;6087194;23;20472;-75
2023/09/10 10:26:52;;;;;;;12.33;7.30;;;27.30;65.80;;;;;;6092404;23;20369;-73
2023/09/10 10:29:18;;;;;;;7.53;6.03;;;27.30;63.70;;;;;;6118747;23;20397;-74
2023/09/10 10:31:48;;;;;;;8.67;6.43;;;27.40;64.20;;;;;;6090497;23;20416;-75
2023/09/10 10:34:23;;;;;;;12.67;6.40;;;27.50;62.50;;;;;;6092284;23;20432;-74
2023/09/10 10:37:11;;;;;;;11.43;6.90;;;27.50;60.40;;;;;;6093184;23;20371;-77
2023/09/10 10:39:52;;;;;;;8.37;6.03;;;27.60;59.50;;;;;;6069470;23;20427;-74
2023/09/10 10:42:32;;;;;;;8.90;5.73;;;27.70;59.90;;;;;;6068838;23;20383;-76
2023/09/10 10:45:06;;;;;;;6.80;5.60;;;27.70;60.60;;;;;;6094575;23;20452;-76
2023/09/10 10:47:38;;;;;;;12.10;6.53;;;27.80;60.40;;;;;;6019747;23;20372;-74
2023/09/10 10:50:12;;;;;;;5.93;5.00;;;27.90;59.50;;;;;;6092216;23;20424;-75
2023/09/10 10:53:02;;;;;;;5.30;4.70;;;28.00;59.70;;;;;;6090526;23;20368;-73
2023/09/10 10:55:29;;;;;;;5.67;4.93;;;28.10;59.70;;;;;;6091792;23;20412;-74
2023/09/10 10:57:56;;;;;;;8.90;6.03;;;28.20;59.80;;;;;;6091759;23;20428;-75
2023/09/10 11:00:25;;;;;;;7.80;6.10;;;28.30;59.20;;;;;;6056169;23;20386;-75
2023/09/10 11:03:14;;;;;;;6.00;5.10;;;28.30;59.10;;;;;;6058604;23;20441;-75
2023/09/10 11:05:54;;;;;;;6.87;5.13;;;28.30;58.60;;;;;;6030746;23;20387;-75
2023/09/10 11:08:36;;;;;;;7.20;5.37;;;28.40;58.90;;;;;;6032426;23;20446;-74
2023/09/10 11:11:08;;;;;;;5.97;5.37;;;28.40;59.20;;;;;;6058231;23;20430;-76
2023/09/10 11:13:34;;;;;;;7.50;5.67;;;28.50;58.70;;;;;;6002219;23;20446;-77
2023/09/10 11:16:05;;;;;;;7.53;6.10;;;28.50;58.90;;;;;;6027639;23;20368;-75
2023/09/10 11:18:37;;;;;;;6.20;5.60;;;28.60;58.70;;;;;;5978972;23;20383;-77
2023/09/10 11:21:10;;;;;;;5.97;5.33;;;28.60;58.40;;;;;;6031420;23;20411;-74
2023/09/10 11:24:16;;;;;;;7.30;6.10;;;28.60;58.50;;;;;;5982014;23;20418;-74
2023/09/10 11:26:42;;;;;;;5.83;5.00;;;28.70;58.40;;;;;;6004688;23;20799;-76
2023/09/10 11:29:08;;;;;;;6.00;5.03;;;28.70;58.50;;;;;;5980547;23;20486;-76
2023/09/10 11:31:40;;;;;;;5.10;4.60;;;28.80;58.10;;;;;;5995993;23;20182;-74
2023/09/10 11:34:17;;;;;;;6.27;5.50;;;28.80;58.00;;;;;;6022932;23;20502;-74
2023/09/10 11:36:50;;;;;;;6.30;5.53;;;28.90;57.90;;;;;;5985530;23;20375;-76
2023/09/10 11:39:17;;;;;;;9.27;6.83;;;29.00;57.70;;;;;;6037760;23;20402;-74
2023/09/10 11:41:46;;;;;;;6.80;6.10;;;29.00;57.30;;;;;;6062030;23;20373;-75
2023/09/10 11:44:12;;;;;;;7.40;5.60;;;28.90;57.50;;;;;;6042034;23;20424;-76
2023/09/10 11:46:38;;;;;;;6.37;5.60;;;28.90;57.30;;;;;;6040973;23;20366;-74
2023/09/10 11:49:05;;;;;;;7.20;5.67;;;29.00;57.40;;;;;;6065808;23;20161;-77
2023/09/10 11:51:31;;;;;;;7.87;5.37;;;29.10;57.60;;;;;;6039612;23;20378;-75
2023/09/10 11:53:59;;;;;;;5.80;5.20;;;29.10;57.00;;;;;;6039272;23;20653;-74
2023/09/10 11:56:28;;;;;;;7.30;5.33;;;29.20;56.80;;;;;;6014014;23;20410;-74
2023/09/10 11:58:54;;;;;;;8.00;7.03;;;29.20;57.00;;;;;;6038301;23;20386;-76
2023/09/10 12:01:21;;;;;;;5.83;5.30;;;29.20;56.50;;;;;;6040270;23;20377;-75
2023/09/10 12:03:48;;;;;;;6.03;5.40;;;29.30;56.70;;;;;;6045172;23;20205;-75
2023/09/10 12:06:15;;;;;;;10.17;5.67;;;29.20;56.80;;;;;;6038597;23;20429;-74
2023/09/10 12:08:41;;;;;;;6.67;5.60;;;29.20;56.70;;;;;;6084739;23;20415;-75
2023/09/10 12:11:10;;;;;;;7.67;5.83;;;29.20;56.90;;;;;;6061029;23;20377;-75
2023/09/10 12:13:36;;;;;;;8.87;6.73;;;29.30;56.30;;;;;;6033517;23;20205;-76
2023/09/10 12:16:06;;;;;;;10.50;6.43;;;29.40;55.70;;;;;;6059590;23;20377;-75
2023/09/10 12:18:32;;;;;;;8.93;6.60;;;29.50;54.90;;;;;;6059581;23;20385;-75
2023/09/10 12:20:59;;;;;;;8.43;6.20;;;29.50;55.10;;;;;;6082296;23;20425;-74
2023/09/10 12:23:26;;;;;;;6.73;6.10;;;29.50;55.40;;;;;;6036536;23;20416;-78
2023/09/10 12:25:57;;;;;;;5.47;5.07;;;29.50;55.40;;;;;;6061454;23;20393;-75
2023/09/10 12:28:23;;;;;;;9.57;5.63;;;29.40;55.60;;;;;;6042155;23;20424;-75
2023/09/10 12:30:50;;;;;;;8.30;5.63;;;29.50;55.80;;;;;;6063508;23;20366;-76
2023/09/10 12:33:20;;;;;;;9.20;5.60;;;29.50;55.70;;;;;;5976489;24;20424;-78
2023/09/10 12:35:47;;;;;;;7.60;5.83;;;29.60;55.40;;;;;;6001649;24;20372;-76
2023/09/10 12:38:23;;;;;;;8.73;5.87;;;29.60;55.40;;;;;;5975640;24;20388;-75
2023/09/10 12:40:52;;;;;;;6.90;6.20;;;29.60;55.40;;;;;;5977732;24;20792;-75
2023/09/10 12:43:20;;;;;;;6.23;5.53;;;29.60;55.20;;;;;;5972010;24;20433;-74